This is the latest recevied weather packets stored in our database for station/object DG8GAA-11. If no packets are shown the sender has not sent any weather packets the latest 10 day(s).
| Time | Temp. | Humidity | Pressure | Rain* | Wind** | Luminosity | Snow |
|---|---|---|---|---|---|---|---|
| 1777500056 | 15° C | 34% | 1003.1 hPa | - | - | - | - |
| 1777499153 | 15.56° C | 34% | 1002.9 hPa | - | - | - | - |
| 1777498250 | 16.11° C | 34% | 1002.8 hPa | - | - | - | - |
| 1777497347 | 16.11° C | 35% | 1002.8 hPa | - | - | - | - |
| 1777496444 | 16.67° C | 33% | 1002.5 hPa | - | - | - | - |
| 1777495557 | 17.22° C | 33% | 1002.3 hPa | - | - | - | - |
| 1777495557 | 17.78° C | 32% | 1002.2 hPa | - | - | - | - |
| 1777493735 | 18.33° C | 32% | 1002 hPa | - | - | - | - |
| 1777492832 | 18.33° C | 31% | 1001.8 hPa | - | - | - | - |
| 1777491929 | 18.89° C | 31% | 1001.7 hPa | - | - | - | - |
| 1777491026 | 19.44° C | 31% | 1001.3 hPa | - | - | - | - |
| 1777490123 | 20° C | 31% | 1001.1 hPa | - | - | - | - |
| 1777489220 | 20.56° C | 31% | 1001 hPa | - | - | - | - |
| 1777487414 | 21.67° C | 30% | 1000.5 hPa | - | - | - | - |
| 1777486511 | 22.78° C | 30% | 1000 hPa | - | - | - | - |
| 1777485608 | 23.33° C | 30% | 999.8 hPa | - | - | - | - |
| 1777484705 | 23.89° C | 28% | 999.6 hPa | - | - | - | - |
| 1777483802 | 24.44° C | 27% | 999.4 hPa | - | - | - | - |
| 1777482899 | 25.56° C | 28% | 999.2 hPa | - | - | - | - |
| 1777481996 | 25.56° C | 23% | 999 hPa | - | - | - | - |
| 1777479171 | 28.89° C | 19% | 997.9 hPa | - | - | - | - |
| 1777479150 | 28.89° C | 18% | 998.1 hPa | - | - | - | - |
| 1777479009 | 28.89° C | 20% | 998.5 hPa | - | - | - | - |
| 1777478172 | 28.89° C | 19% | 998.3 hPa | - | - | - | - |
| 1777477269 | 29.44° C | 19% | 998.3 hPa | - | - | - | - |
* Rain since midnight (hover to see other rain measurements)
** Current wind speed in m/s (hover to see current wind gust speed)